Time;durP1;ratioP1;P1;durP2;ratioP2;P2;SDS_P1;SDS_P2;PMS_P1;PMS_P2;Temp;Humidity;BMP_temperature;BMP_pressure;BME280_temperature;BME280_humidity;BME280_pressure;Samples;Min_cycle;Max_cycle;Signal;HPM_P1;HPM_P2
2023/12/19 00:02:55;;;;;;;17.03;15.10;;;3.40;99.90;;;;;;10494393;28;20211;-82
2023/12/19 00:07:59;;;;;;;14.10;12.70;;;3.40;99.90;;;;;;10456259;28;20216;-81
2023/12/19 00:13:02;;;;;;;16.90;14.00;;;3.30;99.90;;;;;;10493521;28;20208;-82
2023/12/19 00:18:05;;;;;;;12.80;11.63;;;3.40;99.90;;;;;;10457118;28;20197;-82
2023/12/19 00:23:08;;;;;;;11.80;10.60;;;3.40;99.90;;;;;;10494048;28;20701;-82
2023/12/19 00:28:11;;;;;;;11.37;10.27;;;3.30;99.90;;;;;;10453204;28;20233;-81
2023/12/19 00:33:13;;;;;;;10.50;9.40;;;3.40;99.90;;;;;;10493508;28;20270;-82
2023/12/19 00:38:17;;;;;;;11.43;9.57;;;3.30;99.90;;;;;;10455232;28;20755;-82
2023/12/19 00:43:20;;;;;;;10.00;9.00;;;3.30;99.90;;;;;;10498296;28;20228;-82
2023/12/19 00:48:23;;;;;;;12.90;9.63;;;3.20;99.90;;;;;;10454525;28;20217;-82
2023/12/19 00:53:27;;;;;;;10.20;9.20;;;3.20;99.90;;;;;;10415413;28;20313;-82
2023/12/19 00:58:29;;;;;;;10.80;8.23;;;3.30;99.90;;;;;;10419063;28;20190;-82
2023/12/19 01:03:32;;;;;;;9.10;8.17;;;3.30;99.90;;;;;;10502198;28;20232;-82
2023/12/19 01:08:36;;;;;;;8.60;7.43;;;3.30;99.90;;;;;;10461530;28;20220;-81
2023/12/19 01:13:38;;;;;;;8.00;7.23;;;3.30;99.90;;;;;;10503005;28;20228;-82
2023/12/19 01:18:41;;;;;;;8.60;7.77;;;3.30;99.90;;;;;;10462621;28;20193;-82
2023/12/19 01:23:44;;;;;;;8.80;6.90;;;3.30;99.90;;;;;;10499654;28;20618;-82
2023/12/19 01:28:47;;;;;;;7.97;7.27;;;3.30;99.90;;;;;;10462687;28;20212;-82
2023/12/19 01:33:49;;;;;;;7.30;6.70;;;3.30;99.90;;;;;;10498903;28;20277;-82
2023/12/19 01:38:53;;;;;;;8.67;6.80;;;3.30;99.90;;;;;;10475654;28;20267;-82
2023/12/19 01:43:58;;;;;;;6.80;6.20;;;3.30;99.90;;;;;;10498577;28;20282;-82
2023/12/19 01:49:01;;;;;;;8.53;7.57;;;3.30;99.90;;;;;;10494243;28;20758;-82
2023/12/19 01:54:06;;;;;;;7.70;6.97;;;3.30;99.90;;;;;;10459630;28;20651;-82
2023/12/19 01:59:09;;;;;;;9.77;8.77;;;3.20;99.90;;;;;;10493749;28;20219;-82
2023/12/19 02:04:12;;;;;;;8.87;8.07;;;3.00;99.90;;;;;;10458764;28;20584;-81
2023/12/19 02:09:17;;;;;;;9.53;8.50;;;3.00;99.90;;;;;;10497805;28;20274;-82
2023/12/19 02:14:19;;;;;;;10.67;9.63;;;3.00;99.90;;;;;;10465159;28;20750;-81
2023/12/19 02:19:21;;;;;;;9.40;8.40;;;3.00;99.90;;;;;;10493434;28;20197;-82
2023/12/19 02:24:25;;;;;;;9.43;8.53;;;3.10;99.90;;;;;;10459725;28;20228;-82
2023/12/19 02:29:27;;;;;;;9.33;8.23;;;3.00;99.90;;;;;;10495858;28;20291;-82
2023/12/19 02:34:30;;;;;;;9.00;8.10;;;3.00;99.90;;;;;;10460178;28;20217;-81
2023/12/19 02:39:34;;;;;;;10.20;9.20;;;2.90;99.90;;;;;;10492313;28;20689;-81
2023/12/19 02:44:36;;;;;;;9.10;7.67;;;2.90;99.90;;;;;;10461670;28;20267;-82
2023/12/19 02:49:39;;;;;;;10.73;8.60;;;2.90;99.90;;;;;;10496812;28;20216;-82
2023/12/19 02:54:42;;;;;;;7.63;6.83;;;2.80;99.90;;;;;;10465909;28;20294;-81
2023/12/19 02:59:45;;;;;;;7.70;7.00;;;2.70;99.90;;;;;;10491000;28;20195;-82
2023/12/19 03:04:47;;;;;;;10.27;7.40;;;2.70;99.90;;;;;;10463680;28;20232;-82
2023/12/19 03:09:51;;;;;;;8.93;6.90;;;2.70;99.90;;;;;;10493667;28;20757;-82
2023/12/19 03:14:53;;;;;;;7.70;7.00;;;2.70;99.90;;;;;;10465016;28;20220;-82
2023/12/19 03:19:55;;;;;;;6.43;5.83;;;2.80;99.90;;;;;;10489590;28;20677;-82
2023/12/19 03:24:59;;;;;;;6.47;5.87;;;2.80;99.90;;;;;;10464826;28;20224;-81
2023/12/19 03:30:02;;;;;;;7.27;5.97;;;2.80;99.90;;;;;;10491542;28;20212;-82
2023/12/19 03:35:05;;;;;;;5.90;5.40;;;2.80;99.90;;;;;;10465997;28;20755;-82
2023/12/19 03:40:10;;;;;;;6.27;5.77;;;2.80;99.90;;;;;;10491294;28;20218;-82
2023/12/19 03:45:13;;;;;;;7.23;5.87;;;2.70;99.90;;;;;;10476171;28;20224;-81
2023/12/19 03:50:15;;;;;;;5.53;5.07;;;2.70;99.90;;;;;;10499251;28;20693;-82
2023/12/19 03:55:19;;;;;;;4.80;4.40;;;2.70;99.90;;;;;;10464940;28;20225;-81
2023/12/19 04:00:23;;;;;;;5.80;5.30;;;2.70;99.90;;;;;;10491473;28;20255;-82
2023/12/19 04:05:26;;;;;;;5.80;5.30;;;2.70;99.90;;;;;;10467483;28;20239;-81
2023/12/19 04:10:29;;;;;;;6.40;5.00;;;2.60;99.90;;;;;;10491054;28;20216;-82
2023/12/19 04:15:32;;;;;;;6.27;4.90;;;2.60;99.90;;;;;;10470554;28;20236;-82
2023/12/19 04:20:34;;;;;;;6.50;5.90;;;2.60;99.90;;;;;;10491964;28;20200;-82
2023/12/19 04:25:38;;;;;;;6.13;5.57;;;2.60;99.90;;;;;;10473739;28;20232;-81
2023/12/19 04:30:41;;;;;;;5.47;4.97;;;2.60;99.90;;;;;;10502965;28;20265;-81
2023/12/19 04:35:43;;;;;;;5.20;4.80;;;2.70;99.90;;;;;;10506500;28;20221;-81
2023/12/19 04:40:47;;;;;;;6.03;5.13;;;2.70;99.90;;;;;;10526797;28;20203;-82
2023/12/19 04:45:50;;;;;;;6.00;5.50;;;2.80;99.90;;;;;;10490693;28;20221;-81
2023/12/19 04:50:52;;;;;;;6.60;6.10;;;2.70;99.90;;;;;;10489003;28;20231;-81
2023/12/19 04:55:56;;;;;;;5.90;5.33;;;2.70;99.90;;;;;;10466963;28;20690;-82
2023/12/19 05:00:58;;;;;;;6.50;5.90;;;2.70;99.90;;;;;;10488301;28;20188;-81
2023/12/19 05:06:01;;;;;;;5.23;4.70;;;2.60;99.90;;;;;;10469780;28;20233;-82
2023/12/19 05:11:06;;;;;;;4.60;4.20;;;2.60;99.90;;;;;;10488372;28;20220;-81
2023/12/19 05:16:13;;;;;;;5.50;4.80;;;2.50;99.90;;;;;;10510011;22;20334;-79
2023/12/19 05:21:15;;;;;;;5.70;5.10;;;2.50;99.90;;;;;;10551293;28;20196;-78
2023/12/19 05:26:19;;;;;;;5.77;5.00;;;2.40;99.90;;;;;;10552570;28;20224;-79
2023/12/19 05:31:22;;;;;;;6.20;5.60;;;2.50;99.90;;;;;;10525343;28;20220;-78
2023/12/19 05:36:24;;;;;;;7.97;6.80;;;2.50;99.90;;;;;;10528995;28;20219;-78
2023/12/19 05:41:28;;;;;;;17.00;11.37;;;2.50;99.90;;;;;;10512990;28;20273;-79
2023/12/19 05:46:30;;;;;;;11.87;10.10;;;2.60;99.90;;;;;;10506826;28;20297;-78
2023/12/19 05:51:33;;;;;;;7.50;6.80;;;2.60;99.90;;;;;;10509774;28;20216;-78
2023/12/19 05:56:36;;;;;;;6.20;5.60;;;2.60;99.90;;;;;;10514692;28;20220;-79
2023/12/19 06:01:42;;;;;;;6.53;5.90;;;2.60;99.90;;;;;;10528784;28;20218;-79
2023/12/19 06:06:45;;;;;;;7.13;6.53;;;2.60;99.90;;;;;;10500012;28;20220;-79
2023/12/19 06:11:48;;;;;;;7.10;6.40;;;2.60;99.90;;;;;;10532807;28;20223;-79
2023/12/19 06:16:51;;;;;;;6.30;5.70;;;2.50;99.90;;;;;;10522989;28;20228;-79
2023/12/19 06:21:53;;;;;;;9.07;6.23;;;2.50;99.90;;;;;;10532849;28;20188;-79
2023/12/19 06:26:57;;;;;;;8.07;6.70;;;2.60;99.90;;;;;;10519544;28;20239;-80
2023/12/19 06:31:59;;;;;;;10.07;7.73;;;2.60;99.90;;;;;;10529008;28;20280;-79
2023/12/19 06:37:02;;;;;;;9.93;8.60;;;2.70;99.90;;;;;;10520310;28;20287;-79
2023/12/19 06:42:06;;;;;;;11.83;8.87;;;2.70;99.90;;;;;;10529317;28;20218;-80
2023/12/19 06:47:08;;;;;;;10.03;9.03;;;2.70;99.90;;;;;;10547903;28;20227;-79
2023/12/19 06:52:10;;;;;;;9.73;8.40;;;2.60;99.90;;;;;;10518528;28;20216;-79
2023/12/19 06:57:14;;;;;;;14.30;8.87;;;2.60;99.90;;;;;;10524097;28;20547;-79
2023/12/19 07:02:16;;;;;;;14.57;10.60;;;2.50;99.90;;;;;;10523826;28;20200;-79
2023/12/19 07:07:19;;;;;;;10.40;9.30;;;2.50;99.90;;;;;;10509434;28;20754;-78
2023/12/19 07:12:22;;;;;;;10.03;9.10;;;2.50;99.90;;;;;;10526077;28;20250;-79
2023/12/19 07:17:25;;;;;;;10.70;9.57;;;2.40;99.90;;;;;;10529792;28;20219;-80
2023/12/19 07:22:27;;;;;;;9.47;8.30;;;2.30;99.90;;;;;;10527866;28;20258;-80
2023/12/19 07:27:34;;;;;;;10.00;9.00;;;2.20;99.90;;;;;;10513623;28;20208;-78
2023/12/19 07:32:36;;;;;;;14.60;9.87;;;2.30;99.90;;;;;;10534237;28;20208;-79
2023/12/19 07:37:38;;;;;;;10.53;9.10;;;2.30;99.90;;;;;;10533224;28;20216;-79
2023/12/19 07:42:44;;;;;;;13.30;11.07;;;2.40;99.90;;;;;;10531924;28;20731;-79
2023/12/19 07:47:46;;;;;;;11.10;10.00;;;2.40;99.90;;;;;;10537966;28;20704;-79
2023/12/19 07:52:50;;;;;;;11.57;10.37;;;2.40;99.90;;;;;;10520697;28;20233;-79
2023/12/19 07:57:54;;;;;;;11.20;9.67;;;2.50;99.90;;;;;;10517868;28;20711;-78
2023/12/19 08:02:56;;;;;;;14.83;11.83;;;2.60;99.90;;;;;;10523498;28;20254;-80
2023/12/19 08:07:58;;;;;;;12.30;10.93;;;2.60;99.90;;;;;;10529889;28;20223;-79
2023/12/19 08:13:02;;;;;;;11.57;10.37;;;2.60;99.90;;;;;;10531240;28;20212;-79
2023/12/19 08:18:05;;;;;;;15.70;11.90;;;2.70;99.90;;;;;;10529187;28;20280;-79
2023/12/19 08:23:08;;;;;;;14.00;11.40;;;2.70;99.90;;;;;;10532404;28;20605;-79
2023/12/19 08:28:12;;;;;;;15.47;12.50;;;2.80;99.90;;;;;;10528058;28;20224;-79
2023/12/19 08:33:15;;;;;;;13.50;12.10;;;2.90;99.90;;;;;;10515931;28;20216;-79
2023/12/19 08:38:17;;;;;;;13.73;12.33;;;2.90;99.90;;;;;;10512396;28;20216;-79
2023/12/19 08:43:21;;;;;;;14.50;12.83;;;2.90;99.90;;;;;;10538021;28;20220;-79
2023/12/19 08:48:23;;;;;;;14.20;11.80;;;2.90;99.90;;;;;;10530450;28;20551;-79
2023/12/19 08:53:25;;;;;;;15.27;12.90;;;3.00;99.90;;;;;;10530512;28;20318;-79
2023/12/19 08:58:30;;;;;;;13.83;12.40;;;3.00;99.90;;;;;;10506312;28;20223;-79
2023/12/19 09:03:32;;;;;;;15.77;13.33;;;3.10;99.90;;;;;;10515618;28;20189;-79
2023/12/19 09:08:35;;;;;;;16.60;14.33;;;3.20;99.90;;;;;;10526508;28;20647;-79
2023/12/19 09:13:40;;;;;;;15.90;13.43;;;3.30;99.90;;;;;;10535928;28;20235;-79
2023/12/19 09:18:43;;;;;;;15.93;14.07;;;3.40;99.90;;;;;;10527801;28;20321;-80
2023/12/19 09:23:45;;;;;;;17.83;14.77;;;3.50;99.90;;;;;;10521786;28;20199;-79
2023/12/19 09:28:49;;;;;;;15.87;13.40;;;3.60;99.90;;;;;;10528968;28;20234;-80
2023/12/19 09:33:51;;;;;;;16.30;13.47;;;3.70;99.90;;;;;;10539981;28;20229;-78
2023/12/19 09:38:54;;;;;;;15.10;13.33;;;3.80;99.90;;;;;;10523292;28;20211;-78
2023/12/19 09:43:58;;;;;;;15.17;13.27;;;3.90;99.90;;;;;;10532835;28;20203;-78
2023/12/19 09:49:02;;;;;;;14.93;12.43;;;4.00;99.90;;;;;;10490116;28;20696;-77
2023/12/19 09:54:04;;;;;;;14.53;13.03;;;4.10;99.90;;;;;;10526582;28;20221;-78
2023/12/19 09:59:10;;;;;;;14.40;12.90;;;4.20;99.90;;;;;;10514094;28;20300;-77
2023/12/19 10:04:14;;;;;;;16.03;13.70;;;4.30;99.90;;;;;;10528103;28;20625;-78
2023/12/19 10:09:16;;;;;;;16.20;13.23;;;4.30;99.90;;;;;;10514044;28;20220;-78
2023/12/19 10:14:22;;;;;;;16.50;14.43;;;4.30;99.90;;;;;;10528812;28;20728;-78
2023/12/19 10:19:27;;;;;;;16.57;13.60;;;4.30;99.90;;;;;;10496933;28;20224;-78
2023/12/19 10:24:30;;;;;;;18.20;14.23;;;4.30;99.90;;;;;;10528662;28;20204;-78
2023/12/19 10:29:37;;;;;;;16.40;14.67;;;4.20;99.90;;;;;;10514782;28;20215;-78
2023/12/19 10:34:40;;;;;;;17.30;14.97;;;4.20;99.90;;;;;;10529925;28;20208;-78
2023/12/19 10:39:43;;;;;;;15.53;13.93;;;4.20;99.90;;;;;;10524659;28;20212;-78
2023/12/19 10:44:49;;;;;;;16.53;14.80;;;4.20;99.90;;;;;;10533306;28;20250;-77
2023/12/19 10:49:51;;;;;;;19.53;16.23;;;4.20;99.90;;;;;;10523660;28;20253;-78
2023/12/19 10:55:04;;;;;;;14.50;13.00;;;4.20;99.90;;;;;;10541710;28;20220;-80
2023/12/19 11:00:13;;;;;;;20.30;14.10;;;4.20;99.90;;;;;;10514067;28;20184;-80
2023/12/19 11:05:29;;;;;;;16.07;14.23;;;4.20;99.90;;;;;;10546010;28;20231;-79
2023/12/19 11:10:36;;;;;;;16.73;14.93;;;4.20;99.90;;;;;;10539534;28;20206;-79
2023/12/19 11:15:48;;;;;;;16.70;14.90;;;4.30;99.90;;;;;;10570892;22;20216;-82
2023/12/19 11:20:59;;;;;;;18.07;14.50;;;4.20;99.90;;;;;;10511963;28;20199;-83
2023/12/19 11:26:08;;;;;;;16.23;14.53;;;4.20;99.90;;;;;;10521188;28;20216;-83
2023/12/19 11:31:30;;;;;;;17.70;14.77;;;4.20;99.90;;;;;;10500908;28;20219;-83
2023/12/19 11:36:33;;;;;;;17.13;15.33;;;4.30;99.90;;;;;;10481673;28;20220;-80
2023/12/19 11:41:38;;;;;;;22.27;16.60;;;4.30;99.90;;;;;;10497048;28;20189;-80
2023/12/19 11:46:42;;;;;;;16.63;14.87;;;4.50;99.90;;;;;;10495021;28;20793;-80
2023/12/19 11:51:48;;;;;;;17.20;15.37;;;4.40;99.90;;;;;;10478349;28;20219;-80
2023/12/19 11:57:01;;;;;;;20.90;16.03;;;4.50;99.90;;;;;;10499221;28;20212;-83
2023/12/19 12:02:06;;;;;;;17.83;15.50;;;4.50;99.90;;;;;;10477604;28;20200;-83
2023/12/19 12:07:08;;;;;;;15.77;14.13;;;4.60;99.90;;;;;;10493744;28;20242;-83
2023/12/19 12:12:11;;;;;;;17.07;15.07;;;4.60;99.90;;;;;;10475627;28;20277;-82
2023/12/19 12:17:21;;;;;;;16.67;13.70;;;4.70;99.90;;;;;;10463505;28;20881;-83
2023/12/19 12:22:24;;;;;;;19.30;15.53;;;4.90;99.90;;;;;;10494160;28;20197;-83
2023/12/19 12:27:27;;;;;;;18.20;15.17;;;5.00;99.90;;;;;;10495587;28;20216;-81
2023/12/19 12:32:32;;;;;;;15.80;13.63;;;5.10;99.90;;;;;;10498838;28;20212;-80
2023/12/19 12:37:34;;;;;;;17.53;15.73;;;5.10;99.90;;;;;;10499054;28;20638;-81
2023/12/19 12:42:37;;;;;;;18.80;14.50;;;5.20;99.90;;;;;;10482583;28;20620;-80
2023/12/19 12:47:41;;;;;;;16.03;14.20;;;5.30;99.90;;;;;;10462350;28;20240;-80
2023/12/19 12:52:44;;;;;;;17.00;14.37;;;5.30;99.90;;;;;;10510087;28;20584;-80
2023/12/19 12:57:59;;;;;;;16.30;14.50;;;5.30;99.90;;;;;;10470738;28;20220;-81
2023/12/19 13:03:04;;;;;;;16.13;14.50;;;5.30;99.90;;;;;;10485251;28;20195;-81
2023/12/19 13:08:08;;;;;;;16.10;13.80;;;5.20;99.90;;;;;;10485064;28;20219;-81
2023/12/19 13:13:10;;;;;;;17.13;15.00;;;5.20;99.90;;;;;;10486324;28;20319;-81
2023/12/19 13:18:14;;;;;;;16.77;13.47;;;5.00;99.90;;;;;;10471354;28;20778;-82
2023/12/19 13:23:16;;;;;;;13.23;11.83;;;5.00;99.90;;;;;;10481615;28;20185;-82
2023/12/19 13:28:19;;;;;;;17.43;13.53;;;4.90;99.90;;;;;;10503248;28;20239;-82
2023/12/19 13:33:23;;;;;;;12.63;11.33;;;4.90;99.90;;;;;;10485010;28;20221;-83
2023/12/19 13:38:25;;;;;;;12.83;11.30;;;5.00;99.90;;;;;;10502045;28;20278;-83
2023/12/19 13:43:29;;;;;;;14.20;12.70;;;5.10;99.90;;;;;;10484396;28;20185;-82
2023/12/19 13:48:32;;;;;;;12.33;11.13;;;5.10;99.90;;;;;;10444108;28;20231;-82
2023/12/19 13:53:35;;;;;;;14.77;12.60;;;5.10;99.90;;;;;;10500560;28;20275;-82
2023/12/19 13:58:37;;;;;;;13.43;11.60;;;5.20;99.90;;;;;;10476179;28;20739;-82
2023/12/19 14:03:41;;;;;;;14.87;13.10;;;5.30;99.90;;;;;;10495506;28;20197;-82
2023/12/19 14:08:44;;;;;;;13.50;11.90;;;5.30;99.90;;;;;;10499022;28;20792;-82
2023/12/19 14:13:47;;;;;;;12.47;11.17;;;5.30;99.90;;;;;;10500031;28;20216;-82
2023/12/19 14:18:50;;;;;;;11.50;10.30;;;5.30;99.90;;;;;;10476538;28;20224;-82
2023/12/19 14:23:53;;;;;;;14.17;11.07;;;5.30;99.90;;;;;;10479641;28;20214;-82
2023/12/19 14:28:56;;;;;;;12.53;10.33;;;5.30;99.90;;;;;;10498397;28;20224;-82
2023/12/19 14:33:59;;;;;;;12.93;11.40;;;5.30;99.90;;;;;;10495913;28;20220;-82
2023/12/19 14:39:02;;;;;;;12.80;10.33;;;5.30;99.90;;;;;;10477200;28;20216;-82
2023/12/19 14:44:05;;;;;;;12.33;11.10;;;5.30;99.90;;;;;;10495072;28;20198;-82
2023/12/19 14:49:08;;;;;;;12.97;11.30;;;5.30;99.90;;;;;;10454822;28;20615;-82
2023/12/19 14:54:11;;;;;;;11.60;10.40;;;5.30;99.90;;;;;;10477808;28;20212;-83
2023/12/19 14:59:13;;;;;;;11.60;10.17;;;5.20;99.90;;;;;;10494752;28;20224;-82
2023/12/19 15:04:17;;;;;;;11.50;10.30;;;5.20;99.90;;;;;;10477564;28;20193;-82
2023/12/19 15:09:21;;;;;;;13.33;11.63;;;5.20;99.90;;;;;;10495914;28;20706;-82
2023/12/19 15:14:23;;;;;;;10.83;9.77;;;5.20;99.90;;;;;;10473619;28;20220;-82
2023/12/19 15:19:27;;;;;;;11.57;9.60;;;5.20;99.90;;;;;;10470387;28;20219;-81
2023/12/19 15:24:29;;;;;;;13.47;11.00;;;5.20;99.90;;;;;;10500232;28;20197;-82
2023/12/19 15:29:32;;;;;;;11.97;10.50;;;5.10;99.90;;;;;;10494656;28;20695;-82
2023/12/19 15:34:35;;;;;;;12.17;10.90;;;5.20;99.90;;;;;;10495158;28;20216;-82
2023/12/19 15:39:38;;;;;;;13.50;12.10;;;5.20;99.90;;;;;;10500479;28;20224;-82
2023/12/19 15:44:42;;;;;;;15.37;13.07;;;5.20;99.90;;;;;;10494780;28;20201;-82
2023/12/19 15:49:46;;;;;;;16.60;13.90;;;5.10;99.90;;;;;;10473432;28;20221;-82
2023/12/19 15:54:48;;;;;;;13.57;12.07;;;5.10;99.90;;;;;;10483138;28;20685;-82
2023/12/19 15:59:51;;;;;;;12.30;11.00;;;5.00;99.90;;;;;;10482800;28;20258;-81
2023/12/19 16:04:55;;;;;;;13.93;11.77;;;5.00;99.90;;;;;;10497470;28;20201;-81
2023/12/19 16:09:57;;;;;;;13.37;11.97;;;5.00;99.90;;;;;;10479275;28;20220;-81
2023/12/19 16:15:00;;;;;;;12.77;11.47;;;5.00;99.90;;;;;;10487919;28;20219;-81
2023/12/19 16:20:06;;;;;;;14.60;12.43;;;4.90;99.90;;;;;;10466993;28;20285;-81
2023/12/19 16:25:08;;;;;;;14.33;12.83;;;4.90;99.90;;;;;;10500798;28;20184;-81
2023/12/19 16:30:12;;;;;;;15.93;14.23;;;4.80;99.90;;;;;;10504898;28;20258;-80
2023/12/19 16:35:17;;;;;;;18.47;16.37;;;4.70;99.90;;;;;;10504119;28;20220;-81
2023/12/19 16:40:19;;;;;;;15.17;13.67;;;4.50;99.90;;;;;;10506780;28;20216;-81
2023/12/19 16:45:22;;;;;;;16.20;13.30;;;4.50;99.90;;;;;;10507602;28;20185;-80
2023/12/19 16:50:26;;;;;;;13.90;12.33;;;4.50;99.90;;;;;;10511778;28;20200;-81
2023/12/19 16:55:28;;;;;;;12.60;11.30;;;4.50;99.90;;;;;;10521741;28;20216;-80
2023/12/19 17:00:31;;;;;;;13.83;12.17;;;4.50;99.90;;;;;;10535932;28;20192;-80
2023/12/19 17:05:35;;;;;;;16.37;13.00;;;4.40;99.90;;;;;;10534132;28;20275;-81
2023/12/19 17:10:37;;;;;;;17.23;14.57;;;4.40;99.90;;;;;;10525008;28;20193;-82
2023/12/19 17:15:39;;;;;;;16.10;13.70;;;4.40;99.90;;;;;;10522658;28;20212;-81
2023/12/19 17:20:43;;;;;;;15.67;14.07;;;4.30;99.90;;;;;;10519482;28;20211;-81
2023/12/19 17:25:45;;;;;;;11.97;10.67;;;4.30;99.90;;;;;;10485748;28;20216;-81
2023/12/19 17:30:49;;;;;;;13.63;12.17;;;4.30;99.90;;;;;;10503531;28;20205;-81
2023/12/19 17:35:53;;;;;;;14.83;12.00;;;4.40;99.90;;;;;;10501546;28;20228;-81
2023/12/19 17:40:55;;;;;;;14.17;12.10;;;4.50;99.90;;;;;;10505157;28;20196;-81
2023/12/19 17:45:57;;;;;;;12.47;10.60;;;4.70;99.90;;;;;;10486862;28;20224;-81
2023/12/19 17:51:01;;;;;;;13.00;11.70;;;4.80;99.90;;;;;;10501159;28;20193;-81
2023/12/19 17:56:04;;;;;;;14.43;12.87;;;4.80;99.90;;;;;;10479697;28;20576;-82
2023/12/19 18:01:06;;;;;;;14.87;12.67;;;5.00;99.90;;;;;;10500478;28;20189;-81
2023/12/19 18:06:17;;;;;;;13.60;11.80;;;5.00;99.90;;;;;;10501528;28;20247;-81
2023/12/19 18:11:20;;;;;;;13.77;11.73;;;5.00;99.90;;;;;;10484343;28;20201;-81
2023/12/19 18:16:22;;;;;;;14.93;12.00;;;5.00;99.90;;;;;;10503592;28;20273;-82
2023/12/19 18:21:27;;;;;;;14.07;12.40;;;5.00;99.90;;;;;;10501293;28;20222;-81
2023/12/19 18:26:29;;;;;;;13.23;11.60;;;5.00;99.90;;;;;;10501828;28;20216;-81
2023/12/19 18:31:31;;;;;;;16.63;13.27;;;5.10;99.90;;;;;;10485245;28;20250;-81
2023/12/19 18:36:35;;;;;;;15.57;12.03;;;5.10;99.90;;;;;;10486855;28;20224;-81
2023/12/19 18:41:38;;;;;;;16.43;14.10;;;5.10;99.90;;;;;;10501277;28;20196;-81
2023/12/19 18:46:40;;;;;;;14.50;12.70;;;5.00;99.90;;;;;;10495916;28;20211;-81
2023/12/19 18:51:44;;;;;;;13.77;11.97;;;5.00;99.90;;;;;;10496374;28;20189;-81
2023/12/19 18:56:46;;;;;;;12.30;11.00;;;5.00;99.90;;;;;;10496285;28;20274;-81
2023/12/19 19:01:49;;;;;;;15.10;12.50;;;5.10;99.90;;;;;;10497384;28;20200;-81
2023/12/19 19:06:52;;;;;;;16.60;14.80;;;5.20;99.90;;;;;;10496592;28;20247;-81
2023/12/19 19:11:55;;;;;;;13.40;12.00;;;5.30;99.90;;;;;;10478246;28;20201;-81
2023/12/19 19:16:57;;;;;;;16.10;12.00;;;5.30;99.90;;;;;;10495820;28;20224;-81
2023/12/19 19:22:01;;;;;;;18.90;15.70;;;5.30;99.90;;;;;;10493438;28;20201;-81
2023/12/19 19:27:06;;;;;;;17.67;15.33;;;5.20;99.90;;;;;;10495858;28;20243;-82
2023/12/19 19:32:13;;;;;;;19.50;15.60;;;5.30;99.90;;;;;;10478383;28;20199;-81
2023/12/19 19:37:17;;;;;;;18.40;16.40;;;5.20;99.90;;;;;;10478157;28;20228;-81
2023/12/19 19:42:21;;;;;;;18.60;15.53;;;5.20;99.90;;;;;;10477826;28;20212;-81
2023/12/19 19:47:23;;;;;;;18.03;15.50;;;5.20;99.90;;;;;;10497174;28;20208;-81
2023/12/19 19:52:27;;;;;;;17.30;13.53;;;5.10;99.90;;;;;;10495768;28;20212;-82
2023/12/19 19:57:31;;;;;;;16.03;13.73;;;5.10;99.90;;;;;;10476140;28;20475;-81
2023/12/19 20:02:34;;;;;;;12.53;9.80;;;5.20;99.90;;;;;;10476605;28;20197;-81
2023/12/19 20:07:38;;;;;;;10.07;8.80;;;5.30;99.90;;;;;;10495361;28;20204;-81
2023/12/19 20:12:42;;;;;;;9.00;8.10;;;5.50;99.90;;;;;;10496687;28;20188;-82
2023/12/19 20:17:45;;;;;;;7.70;6.97;;;5.60;99.90;;;;;;10495176;28;20701;-81
2023/12/19 20:22:48;;;;;;;12.23;9.17;;;5.70;99.90;;;;;;10478666;28;20279;-82
2023/12/19 20:27:52;;;;;;;10.60;9.50;;;5.90;99.90;;;;;;10477377;28;20216;-81
2023/12/19 20:32:56;;;;;;;14.97;12.50;;;5.90;99.90;;;;;;10495341;28;20196;-81
2023/12/19 20:38:00;;;;;;;14.27;12.77;;;6.00;99.90;;;;;;10496374;28;20240;-81
2023/12/19 20:43:04;;;;;;;14.93;12.43;;;6.10;99.90;;;;;;10479015;28;20197;-81
2023/12/19 20:48:07;;;;;;;15.60;14.00;;;6.10;99.90;;;;;;10495655;28;20213;-81
2023/12/19 20:53:11;;;;;;;14.70;11.80;;;6.10;99.90;;;;;;10414540;28;20198;-81
2023/12/19 20:58:13;;;;;;;7.73;6.97;;;6.20;99.90;;;;;;10411981;28;20707;-82
2023/12/19 21:03:15;;;;;;;4.03;3.63;;;6.20;99.90;;;;;;10478795;28;20219;-81
2023/12/19 21:08:20;;;;;;;2.83;2.63;;;6.30;99.90;;;;;;10496100;28;20221;-81
2023/12/19 21:13:23;;;;;;;3.73;3.40;;;6.50;99.90;;;;;;10504297;28;20705;-81
2023/12/19 21:18:26;;;;;;;5.17;2.60;;;6.70;99.90;;;;;;10503372;28;20232;-82
2023/12/19 21:23:29;;;;;;;2.50;2.40;;;6.80;99.90;;;;;;10504560;28;20775;-80
2023/12/19 21:28:32;;;;;;;3.20;3.00;;;6.90;99.90;;;;;;10502700;28;20278;-80
2023/12/19 21:33:34;;;;;;;3.40;3.20;;;7.10;99.90;;;;;;10484587;28;20208;-81
2023/12/19 21:38:38;;;;;;;3.33;2.93;;;7.20;99.90;;;;;;10484992;28;20274;-81
2023/12/19 21:43:41;;;;;;;3.47;2.83;;;7.30;99.90;;;;;;10503860;28;20223;-81
2023/12/19 21:48:43;;;;;;;3.00;2.80;;;7.40;99.90;;;;;;10504265;28;20709;-80
2023/12/19 21:53:47;;;;;;;3.27;3.00;;;7.40;99.90;;;;;;10486572;28;20203;-81
2023/12/19 21:58:49;;;;;;;2.60;2.40;;;7.40;99.90;;;;;;10515410;28;20220;-81
2023/12/19 22:03:52;;;;;;;2.23;2.13;;;7.50;99.90;;;;;;10511782;28;20205;-82
2023/12/19 22:08:55;;;;;;;2.40;2.23;;;7.50;99.90;;;;;;10482270;28;20216;-81
2023/12/19 22:13:58;;;;;;;2.60;2.40;;;7.50;99.90;;;;;;10501658;28;20193;-81
2023/12/19 22:19:00;;;;;;;2.47;2.27;;;7.60;99.90;;;;;;10501602;28;20216;-81
2023/12/19 22:24:04;;;;;;;4.00;2.30;;;7.60;99.90;;;;;;10499609;28;20208;-81
2023/12/19 22:29:07;;;;;;;2.20;2.00;;;7.60;99.90;;;;;;10501725;28;20217;-82
2023/12/19 22:34:11;;;;;;;2.57;2.37;;;7.60;99.90;;;;;;10499752;28;20224;-81
2023/12/19 22:39:14;;;;;;;2.27;2.17;;;7.60;99.90;;;;;;10502713;28;20232;-81
2023/12/19 22:44:17;;;;;;;2.27;2.17;;;7.70;99.90;;;;;;10502607;28;20631;-81
2023/12/19 22:49:19;;;;;;;2.10;2.00;;;7.70;99.90;;;;;;10502814;28;20227;-81
2023/12/19 22:54:23;;;;;;;3.17;2.30;;;7.70;99.90;;;;;;10504076;28;20212;-81
2023/12/19 22:59:26;;;;;;;2.40;2.20;;;7.70;99.90;;;;;;10486584;28;20728;-82
2023/12/19 23:04:28;;;;;;;2.20;2.10;;;7.70;99.90;;;;;;10517803;28;20192;-81
2023/12/19 23:09:32;;;;;;;2.30;2.20;;;7.70;99.90;;;;;;10510059;28;20209;-81
2023/12/19 23:14:34;;;;;;;2.57;2.37;;;7.70;99.90;;;;;;10525303;28;20758;-81
2023/12/19 23:19:36;;;;;;;2.40;2.30;;;7.70;99.90;;;;;;10477950;28;20225;-81
2023/12/19 23:24:40;;;;;;;2.73;2.53;;;7.70;99.90;;;;;;10494768;28;20192;-81
2023/12/19 23:29:42;;;;;;;2.70;2.50;;;7.70;99.90;;;;;;10495299;28;20578;-81
2023/12/19 23:34:45;;;;;;;2.53;2.43;;;7.80;99.90;;;;;;10494995;28;20221;-81
2023/12/19 23:39:49;;;;;;;2.57;2.37;;;7.80;99.90;;;;;;10495271;28;20290;-81
2023/12/19 23:44:51;;;;;;;2.40;2.30;;;7.80;99.90;;;;;;10493686;28;20196;-81
2023/12/19 23:49:54;;;;;;;2.60;2.40;;;7.80;99.90;;;;;;10495978;28;20628;-82
2023/12/19 23:54:57;;;;;;;2.50;2.30;;;7.80;99.90;;;;;;10493301;28;20216;-81
